N957JS KDPA-KDCA
Flight info
| Callsign | N957JS |
|---|---|
| Flight time | 1h 31m |
| Altitude | 39000 |
| Route | ELANR9 EMEGE TRAKK J30 LUISE ESL TIKEE4 |
| Aircraft | C750/M-SBDE3FGHRWXY/S |
Departure
| Time | 2026-04-30 20:46 |
|---|---|
| Airport | Dupage Airport (KDPA) |
Arrival
| Time | 2026-04-30 22:17 |
|---|---|
| Airport | Ronald Reagan Washington National Airport (KDCA) |
| Time | Latitude | Longitude | Altitude | Speed | Heading |
|---|---|---|---|---|---|
| 2026-04-30 19:37 | 41.91575 | -88.25691 | 759 ft | 0 kts | 277° |
| 2026-04-30 20:21 | 41.91566 | -88.25714 | 759 ft | 4 kts | 216° |
| 2026-04-30 20:21 | 41.91541 | -88.25717 | 757 ft | 3 kts | 184° |
| 2026-04-30 20:21 | 41.91526 | -88.25718 | 759 ft | 0 kts | 181° |
| 2026-04-30 20:39 | 41.91521 | -88.25718 | 759 ft | 4 kts | 180° |
| 2026-04-30 20:39 | 41.91489 | -88.25660 | 759 ft | 11 kts | 95° |
| 2026-04-30 20:39 | 41.91481 | -88.25563 | 759 ft | 10 kts | 96° |
| 2026-04-30 20:40 | 41.91466 | -88.25389 | 759 ft | 9 kts | 96° |
| 2026-04-30 20:40 | 41.91460 | -88.25312 | 757 ft | 8 kts | 95° |
| 2026-04-30 20:40 | 41.91455 | -88.25239 | 759 ft | 7 kts | 95° |
| 2026-04-30 20:41 | 41.91433 | -88.24967 | 759 ft | 19 kts | 96° |
| 2026-04-30 20:41 | 41.91426 | -88.24879 | 761 ft | 7 kts | 97° |
| 2026-04-30 20:41 | 41.91418 | -88.24774 | 760 ft | 15 kts | 96° |
| 2026-04-30 20:41 | 41.91405 | -88.24604 | 760 ft | 14 kts | 97° |
| 2026-04-30 20:42 | 41.91397 | -88.24487 | 762 ft | 15 kts | 96° |
| 2026-04-30 20:42 | 41.91384 | -88.24322 | 762 ft | 20 kts | 97° |
| 2026-04-30 20:42 | 41.91375 | -88.24214 | 763 ft | 0 kts | 97° |
| 2026-04-30 20:43 | 41.91375 | -88.24213 | 763 ft | 1 kts | 101° |
| 2026-04-30 20:43 | 41.91348 | -88.24188 | 763 ft | 11 kts | 147° |
| 2026-04-30 20:44 | 41.91295 | -88.24147 | 763 ft | 5 kts | 152° |
| 2026-04-30 20:44 | 41.91227 | -88.24125 | 762 ft | 11 kts | 201° |
| 2026-04-30 20:44 | 41.91215 | -88.24164 | 761 ft | 0 kts | 272° |
| 2026-04-30 20:46 | 41.91355 | -88.25745 | 1199 ft | 127 kts | 280° |
| 2026-04-30 20:46 | 41.91527 | -88.26927 | 2078 ft | 130 kts | 280° |
| 2026-04-30 20:47 | 41.92216 | -88.29326 | 3585 ft | 153 kts | 300° |
| 2026-04-30 20:47 | 41.92873 | -88.30507 | 4386 ft | 161 kts | 294° |
| 2026-04-30 20:48 | 41.91926 | -88.33070 | 5998 ft | 176 kts | 221° |
| 2026-04-30 20:48 | 41.90921 | -88.34132 | 6692 ft | 194 kts | 222° |
| 2026-04-30 20:48 | 41.89815 | -88.35347 | 7297 ft | 217 kts | 222° |
| 2026-04-30 20:48 | 41.88385 | -88.36312 | 7738 ft | 254 kts | 193° |
| 2026-04-30 20:49 | 41.86545 | -88.35886 | 8369 ft | 285 kts | 155° |
| 2026-04-30 20:49 | 41.85148 | -88.33998 | 9527 ft | 291 kts | 126° |
| 2026-04-30 20:49 | 41.84174 | -88.31574 | 10383 ft | 301 kts | 119° |
| 2026-04-30 20:50 | 41.81668 | -88.26568 | 10949 ft | 348 kts | 132° |
| 2026-04-30 20:50 | 41.80100 | -88.24014 | 11302 ft | 366 kts | 131° |
| 2026-04-30 20:50 | 41.78573 | -88.21266 | 12112 ft | 371 kts | 128° |
| 2026-04-30 20:50 | 41.77062 | -88.18424 | 12767 ft | 378 kts | 128° |
| 2026-04-30 20:51 | 41.75478 | -88.15580 | 13429 ft | 383 kts | 130° |
| 2026-04-30 20:51 | 41.72207 | -88.09814 | 14711 ft | 395 kts | 130° |
| 2026-04-30 20:51 | 41.70559 | -88.06833 | 15246 ft | 403 kts | 129° |
| 2026-04-30 20:52 | 41.68869 | -88.03810 | 15832 ft | 408 kts | 130° |
| 2026-04-30 20:52 | 41.67147 | -88.00760 | 16498 ft | 414 kts | 130° |
| 2026-04-30 20:52 | 41.63637 | -87.94514 | 17822 ft | 426 kts | 130° |
| 2026-04-30 20:53 | 41.61843 | -87.91321 | 18477 ft | 432 kts | 130° |
| 2026-04-30 20:53 | 41.60025 | -87.88100 | 19104 ft | 436 kts | 130° |
| 2026-04-30 20:53 | 41.58191 | -87.84851 | 19776 ft | 440 kts | 130° |
| 2026-04-30 20:54 | 41.54479 | -87.78279 | 21107 ft | 447 kts | 130° |
| 2026-04-30 20:54 | 41.52596 | -87.74953 | 21696 ft | 452 kts | 130° |
| 2026-04-30 20:54 | 41.50686 | -87.71581 | 22313 ft | 457 kts | 130° |
| 2026-04-30 20:55 | 41.46799 | -87.64789 | 23573 ft | 464 kts | 132° |
| 2026-04-30 20:55 | 41.44505 | -87.61765 | 24057 ft | 463 kts | 144° |
| 2026-04-30 20:55 | 41.41893 | -87.59288 | 24574 ft | 460 kts | 154° |
| 2026-04-30 20:56 | 41.36009 | -87.56185 | 25607 ft | 452 kts | 174° |
| 2026-04-30 20:56 | 41.32922 | -87.55550 | 26122 ft | 450 kts | 180° |
| 2026-04-30 20:56 | 41.26659 | -87.54462 | 27169 ft | 457 kts | 181° |
| 2026-04-30 20:57 | 41.23491 | -87.53904 | 27718 ft | 461 kts | 181° |
| 2026-04-30 20:57 | 41.20301 | -87.53346 | 28241 ft | 466 kts | 180° |
| 2026-04-30 20:57 | 41.17089 | -87.52510 | 28741 ft | 473 kts | 176° |
| 2026-04-30 20:58 | 41.10593 | -87.50757 | 29795 ft | 480 kts | 178° |
| 2026-04-30 20:58 | 41.07305 | -87.49890 | 30279 ft | 483 kts | 178° |
| 2026-04-30 20:58 | 41.04001 | -87.49000 | 30720 ft | 486 kts | 177° |
| 2026-04-30 20:58 | 41.00683 | -87.48101 | 31199 ft | 487 kts | 177° |
| 2026-04-30 20:59 | 40.94117 | -87.46348 | 32521 ft | 483 kts | 178° |
| 2026-04-30 20:59 | 40.90781 | -87.45461 | 33173 ft | 481 kts | 178° |
| 2026-04-30 21:00 | 40.84278 | -87.43724 | 34332 ft | 480 kts | 179° |
| 2026-04-30 21:00 | 40.77720 | -87.41986 | 35285 ft | 481 kts | 178° |
| 2026-04-30 21:01 | 40.71142 | -87.40236 | 36261 ft | 482 kts | 178° |
| 2026-04-30 21:01 | 40.67853 | -87.39366 | 36759 ft | 483 kts | 178° |
| 2026-04-30 21:01 | 40.61256 | -87.37621 | 37765 ft | 484 kts | 178° |
| 2026-04-30 21:02 | 40.57950 | -87.36747 | 38275 ft | 485 kts | 177° |
| 2026-04-30 21:02 | 40.54642 | -87.35874 | 38779 ft | 485 kts | 177° |
| 2026-04-30 21:02 | 40.51321 | -87.35000 | 39062 ft | 489 kts | 177° |
| 2026-04-30 21:02 | 40.47950 | -87.34018 | 39047 ft | 507 kts | 172° |
| 2026-04-30 21:03 | 40.44569 | -87.32413 | 39063 ft | 527 kts | 163° |
| 2026-04-30 21:03 | 40.41275 | -87.30110 | 39060 ft | 546 kts | 154° |
| 2026-04-30 21:03 | 40.38107 | -87.27242 | 39074 ft | 560 kts | 149° |
| 2026-04-30 21:03 | 40.34985 | -87.24093 | 39078 ft | 571 kts | 147° |
| 2026-04-30 21:04 | 40.31852 | -87.20862 | 39085 ft | 575 kts | 148° |
| 2026-04-30 21:04 | 40.22011 | -87.11966 | 39070 ft | 576 kts | 149° |
| 2026-04-30 21:05 | 40.15548 | -87.05736 | 39057 ft | 576 kts | 151° |
| 2026-04-30 21:05 | 40.08955 | -86.99791 | 39061 ft | 576 kts | 151° |
| 2026-04-30 21:06 | 40.02455 | -86.93653 | 39060 ft | 576 kts | 150° |
| 2026-04-30 21:06 | 39.95836 | -86.87814 | 39057 ft | 573 kts | 154° |
| 2026-04-30 21:07 | 39.89059 | -86.82320 | 39061 ft | 574 kts | 154° |
| 2026-04-30 21:07 | 39.82877 | -86.75701 | 39056 ft | 589 kts | 138° |
| 2026-04-30 21:08 | 39.78057 | -86.66990 | 39067 ft | 600 kts | 121° |
| 2026-04-30 21:08 | 39.75052 | -86.56854 | 39053 ft | 605 kts | 105° |
| 2026-04-30 21:09 | 39.74082 | -86.45957 | 39066 ft | 608 kts | 88° |
| 2026-04-30 21:09 | 39.75228 | -86.35144 | 39094 ft | 602 kts | 71° |
| 2026-04-30 21:10 | 39.78117 | -86.25057 | 39077 ft | 593 kts | 62° |
| 2026-04-30 21:10 | 39.81250 | -86.15109 | 39063 ft | 597 kts | 67° |
| 2026-04-30 21:11 | 39.83208 | -86.04597 | 39067 ft | 600 kts | 77° |
| 2026-04-30 21:11 | 39.84660 | -85.93899 | 39065 ft | 600 kts | 75° |
| 2026-04-30 21:12 | 39.86779 | -85.83423 | 39065 ft | 598 kts | 72° |
| 2026-04-30 21:12 | 39.88566 | -85.72816 | 39066 ft | 600 kts | 76° |
| 2026-04-30 21:13 | 39.90474 | -85.62251 | 39065 ft | 599 kts | 72° |
| 2026-04-30 21:13 | 39.92338 | -85.51670 | 39064 ft | 600 kts | 75° |
| 2026-04-30 21:14 | 39.94170 | -85.41068 | 39098 ft | 599 kts | 73° |
| 2026-04-30 21:14 | 39.96030 | -85.30561 | 39070 ft | 592 kts | 75° |
| 2026-04-30 21:15 | 39.97813 | -85.20067 | 39072 ft | 594 kts | 74° |
| 2026-04-30 21:15 | 39.99650 | -85.09569 | 39075 ft | 594 kts | 75° |
| 2026-04-30 21:16 | 40.01424 | -84.99046 | 39071 ft | 592 kts | 75° |
| 2026-04-30 21:16 | 40.03227 | -84.88569 | 39070 ft | 592 kts | 75° |
| 2026-04-30 21:17 | 40.04974 | -84.78137 | 39065 ft | 592 kts | 75° |
| 2026-04-30 21:17 | 40.06751 | -84.67638 | 39065 ft | 592 kts | 75° |
| 2026-04-30 21:18 | 40.08496 | -84.57142 | 39057 ft | 591 kts | 75° |
| 2026-04-30 21:18 | 40.10245 | -84.46645 | 39056 ft | 591 kts | 75° |
| 2026-04-30 21:19 | 40.11975 | -84.36148 | 39086 ft | 592 kts | 76° |
| 2026-04-30 21:19 | 40.13694 | -84.25686 | 39060 ft | 587 kts | 76° |
| 2026-04-30 21:20 | 40.15398 | -84.15238 | 39059 ft | 589 kts | 76° |
| 2026-04-30 21:20 | 40.16809 | -84.06538 | 39059 ft | 588 kts | 76° |
| 2026-04-30 21:21 | 40.18499 | -83.96068 | 39055 ft | 589 kts | 76° |
| 2026-04-30 21:22 | 40.21016 | -83.80348 | 39059 ft | 589 kts | 76° |
| 2026-04-30 21:23 | 40.24340 | -83.59366 | 39058 ft | 589 kts | 76° |
| 2026-04-30 21:23 | 40.26804 | -83.43639 | 39050 ft | 587 kts | 77° |
| 2026-04-30 21:24 | 40.28433 | -83.33166 | 39073 ft | 587 kts | 77° |
| 2026-04-30 21:24 | 40.29900 | -83.22671 | 39030 ft | 586 kts | 83° |
| 2026-04-30 21:25 | 40.29668 | -83.12024 | 39034 ft | 586 kts | 99° |
| 2026-04-30 21:25 | 40.28763 | -83.06834 | 39032 ft | 584 kts | 108° |
| 2026-04-30 21:26 | 40.24130 | -82.92135 | 39049 ft | 585 kts | 116° |
| 2026-04-30 21:27 | 40.20141 | -82.77008 | 39044 ft | 587 kts | 109° |
| 2026-04-30 21:27 | 40.17325 | -82.67022 | 39036 ft | 584 kts | 114° |
| 2026-04-30 21:28 | 40.13139 | -82.52038 | 39042 ft | 585 kts | 113° |
| 2026-04-30 21:29 | 40.08692 | -82.37193 | 39036 ft | 585 kts | 113° |
| 2026-04-30 21:30 | 40.01350 | -82.12517 | 39032 ft | 585 kts | 113° |
| 2026-04-30 21:31 | 39.93903 | -81.87777 | 39028 ft | 588 kts | 114° |
| 2026-04-30 21:32 | 39.89387 | -81.72915 | 39032 ft | 588 kts | 114° |
| 2026-04-30 21:32 | 39.86376 | -81.63022 | 39041 ft | 588 kts | 114° |
| 2026-04-30 21:33 | 39.81844 | -81.48229 | 39028 ft | 587 kts | 114° |
| 2026-04-30 21:34 | 39.78811 | -81.38369 | 39031 ft | 587 kts | 114° |
| 2026-04-30 21:34 | 39.74250 | -81.23607 | 39029 ft | 586 kts | 114° |
| 2026-04-30 21:35 | 39.71203 | -81.13795 | 39029 ft | 586 kts | 114° |
| 2026-04-30 21:35 | 39.68146 | -81.03978 | 38992 ft | 586 kts | 114° |
| 2026-04-30 21:36 | 39.65064 | -80.94126 | 39029 ft | 591 kts | 114° |
| 2026-04-30 21:37 | 39.58882 | -80.74457 | 39024 ft | 588 kts | 115° |
| 2026-04-30 21:37 | 39.56272 | -80.64382 | 39014 ft | 592 kts | 105° |
| 2026-04-30 21:38 | 39.54388 | -80.54070 | 39018 ft | 592 kts | 105° |
| 2026-04-30 21:38 | 39.52254 | -80.43799 | 39014 ft | 590 kts | 107° |
| 2026-04-30 21:39 | 39.50271 | -80.33486 | 39016 ft | 590 kts | 105° |
| 2026-04-30 21:39 | 39.49262 | -80.28408 | 38510 ft | 575 kts | 107° |
| 2026-04-30 21:39 | 39.48238 | -80.23476 | 37742 ft | 557 kts | 107° |
| 2026-04-30 21:40 | 39.47269 | -80.18704 | 37044 ft | 541 kts | 106° |
| 2026-04-30 21:40 | 39.46354 | -80.14035 | 36363 ft | 528 kts | 106° |
| 2026-04-30 21:40 | 39.45445 | -80.09463 | 35685 ft | 523 kts | 106° |
| 2026-04-30 21:40 | 39.44515 | -80.04926 | 35006 ft | 523 kts | 107° |
| 2026-04-30 21:41 | 39.43577 | -80.00349 | 34322 ft | 529 kts | 106° |
| 2026-04-30 21:41 | 39.42647 | -79.95726 | 33656 ft | 531 kts | 106° |
| 2026-04-30 21:41 | 39.41715 | -79.91089 | 32961 ft | 534 kts | 106° |
| 2026-04-30 21:41 | 39.40766 | -79.86447 | 32251 ft | 535 kts | 106° |
| 2026-04-30 21:42 | 39.39810 | -79.81799 | 31545 ft | 535 kts | 106° |
| 2026-04-30 21:42 | 39.38861 | -79.77150 | 30833 ft | 534 kts | 106° |
| 2026-04-30 21:42 | 39.37919 | -79.72524 | 30146 ft | 529 kts | 107° |
| 2026-04-30 21:42 | 39.36983 | -79.67967 | 29394 ft | 521 kts | 107° |
| 2026-04-30 21:43 | 39.36051 | -79.63462 | 28716 ft | 517 kts | 107° |
| 2026-04-30 21:43 | 39.35129 | -79.59001 | 28038 ft | 512 kts | 107° |
| 2026-04-30 21:43 | 39.34218 | -79.54578 | 27366 ft | 507 kts | 107° |
| 2026-04-30 21:43 | 39.33310 | -79.50195 | 26712 ft | 502 kts | 107° |
| 2026-04-30 21:44 | 39.32407 | -79.45856 | 26038 ft | 498 kts | 107° |
| 2026-04-30 21:44 | 39.31512 | -79.41555 | 25385 ft | 494 kts | 107° |
| 2026-04-30 21:44 | 39.30628 | -79.37307 | 24744 ft | 487 kts | 107° |
| 2026-04-30 21:44 | 39.29751 | -79.33107 | 24110 ft | 483 kts | 107° |
| 2026-04-30 21:45 | 39.28880 | -79.28948 | 23463 ft | 478 kts | 107° |
| 2026-04-30 21:45 | 39.28014 | -79.24822 | 22791 ft | 473 kts | 107° |
| 2026-04-30 21:45 | 39.27159 | -79.20751 | 22174 ft | 468 kts | 107° |
| 2026-04-30 21:45 | 39.26310 | -79.16715 | 21561 ft | 463 kts | 107° |
| 2026-04-30 21:46 | 39.25469 | -79.12731 | 20951 ft | 458 kts | 107° |
| 2026-04-30 21:46 | 39.24637 | -79.08795 | 20352 ft | 453 kts | 107° |
| 2026-04-30 21:46 | 39.23690 | -79.04951 | 19717 ft | 446 kts | 116° |
| 2026-04-30 21:46 | 39.22044 | -79.01663 | 19148 ft | 430 kts | 135° |
| 2026-04-30 21:47 | 39.19892 | -78.99230 | 18960 ft | 394 kts | 152° |
| 2026-04-30 21:47 | 39.17493 | -78.97669 | 18952 ft | 385 kts | 167° |
| 2026-04-30 21:47 | 39.14932 | -78.96827 | 18972 ft | 379 kts | 175° |
| 2026-04-30 21:47 | 39.12344 | -78.96115 | 18965 ft | 380 kts | 175° |
| 2026-04-30 21:48 | 39.09753 | -78.95394 | 18969 ft | 381 kts | 175° |
| 2026-04-30 21:48 | 39.07162 | -78.94674 | 18967 ft | 381 kts | 175° |
| 2026-04-30 21:48 | 39.04569 | -78.93957 | 18939 ft | 381 kts | 175° |
| 2026-04-30 21:48 | 39.01947 | -78.93237 | 18812 ft | 395 kts | 175° |
| 2026-04-30 21:49 | 38.99262 | -78.92501 | 18619 ft | 398 kts | 175° |
| 2026-04-30 21:49 | 38.96571 | -78.91748 | 18217 ft | 394 kts | 175° |
| 2026-04-30 21:49 | 38.93901 | -78.91001 | 17750 ft | 390 kts | 175° |
| 2026-04-30 21:49 | 38.91259 | -78.90273 | 17300 ft | 387 kts | 175° |
| 2026-04-30 21:50 | 38.88649 | -78.89559 | 16767 ft | 368 kts | 175° |
| 2026-04-30 21:50 | 38.86235 | -78.88879 | 16199 ft | 346 kts | 175° |
| 2026-04-30 21:50 | 38.83926 | -78.88247 | 15650 ft | 334 kts | 175° |
| 2026-04-30 21:50 | 38.81678 | -78.87640 | 15070 ft | 326 kts | 175° |
| 2026-04-30 21:51 | 38.79476 | -78.87038 | 14542 ft | 322 kts | 175° |
| 2026-04-30 21:51 | 38.77301 | -78.86438 | 14055 ft | 317 kts | 175° |
| 2026-04-30 21:51 | 38.75162 | -78.85849 | 13636 ft | 313 kts | 175° |
| 2026-04-30 21:51 | 38.73062 | -78.85271 | 13130 ft | 310 kts | 174° |
| 2026-04-30 21:52 | 38.70947 | -78.84696 | 12681 ft | 309 kts | 174° |
| 2026-04-30 21:52 | 38.68853 | -78.84122 | 12228 ft | 306 kts | 174° |
| 2026-04-30 21:52 | 38.66780 | -78.83553 | 11808 ft | 303 kts | 174° |
| 2026-04-30 21:52 | 38.64780 | -78.82699 | 11333 ft | 311 kts | 156° |
| 2026-04-30 21:53 | 38.63132 | -78.80880 | 10852 ft | 316 kts | 131° |
| 2026-04-30 21:53 | 38.62155 | -78.78421 | 10407 ft | 315 kts | 107° |
| 2026-04-30 21:53 | 38.61794 | -78.75655 | 10047 ft | 309 kts | 97° |
| 2026-04-30 21:53 | 38.61538 | -78.72945 | 9726 ft | 306 kts | 96° |
| 2026-04-30 21:54 | 38.61278 | -78.70316 | 9364 ft | 298 kts | 96° |
| 2026-04-30 21:54 | 38.61002 | -78.67699 | 9023 ft | 290 kts | 97° |
| 2026-04-30 21:54 | 38.60737 | -78.65165 | 8689 ft | 293 kts | 97° |
| 2026-04-30 21:54 | 38.60472 | -78.62581 | 8375 ft | 293 kts | 97° |
| 2026-04-30 21:55 | 38.60206 | -78.60005 | 8009 ft | 293 kts | 96° |
| 2026-04-30 21:55 | 38.59933 | -78.57372 | 7665 ft | 302 kts | 96° |
| 2026-04-30 21:55 | 38.59664 | -78.54727 | 7359 ft | 300 kts | 96° |
| 2026-04-30 21:55 | 38.59422 | -78.52084 | 7067 ft | 298 kts | 95° |
| 2026-04-30 21:56 | 38.59186 | -78.49497 | 7087 ft | 291 kts | 95° |
| 2026-04-30 21:56 | 38.58941 | -78.46900 | 7098 ft | 297 kts | 95° |
| 2026-04-30 21:56 | 38.58689 | -78.44271 | 7101 ft | 298 kts | 96° |
| 2026-04-30 21:56 | 38.58735 | -78.41568 | 7650 ft | 308 kts | 76° |
| 2026-04-30 21:57 | 38.59225 | -78.38979 | 8841 ft | 306 kts | 74° |
| 2026-04-30 21:57 | 38.59735 | -78.36280 | 8938 ft | 312 kts | 75° |
| 2026-04-30 21:57 | 38.60223 | -78.33609 | 8939 ft | 307 kts | 75° |
| 2026-04-30 21:57 | 38.60715 | -78.30953 | 8936 ft | 306 kts | 75° |
| 2026-04-30 21:58 | 38.61207 | -78.28314 | 8924 ft | 305 kts | 74° |
| 2026-04-30 21:58 | 38.61623 | -78.25658 | 8883 ft | 307 kts | 83° |
| 2026-04-30 21:58 | 38.61270 | -78.22984 | 8883 ft | 306 kts | 110° |
| 2026-04-30 21:58 | 38.60488 | -78.20439 | 8923 ft | 308 kts | 113° |
| 2026-04-30 21:59 | 38.59674 | -78.17910 | 8912 ft | 307 kts | 113° |
| 2026-04-30 21:59 | 38.58884 | -78.15373 | 8908 ft | 307 kts | 112° |
| 2026-04-30 21:59 | 38.58106 | -78.12839 | 8904 ft | 307 kts | 112° |
| 2026-04-30 22:00 | 38.56525 | -78.07770 | 8915 ft | 307 kts | 112° |
| 2026-04-30 22:00 | 38.54944 | -78.02703 | 8914 ft | 307 kts | 112° |
| 2026-04-30 22:00 | 38.54152 | -78.00169 | 8921 ft | 307 kts | 112° |
| 2026-04-30 22:01 | 38.53359 | -77.97637 | 8922 ft | 307 kts | 112° |
| 2026-04-30 22:01 | 38.52565 | -77.95100 | 8923 ft | 307 kts | 113° |
| 2026-04-30 22:01 | 38.51778 | -77.92587 | 8923 ft | 304 kts | 113° |
| 2026-04-30 22:01 | 38.50993 | -77.90082 | 8934 ft | 304 kts | 113° |
| 2026-04-30 22:02 | 38.50205 | -77.87575 | 8928 ft | 305 kts | 113° |
| 2026-04-30 22:02 | 38.49415 | -77.85060 | 8932 ft | 304 kts | 113° |
| 2026-04-30 22:02 | 38.48627 | -77.82555 | 8930 ft | 304 kts | 113° |
| 2026-04-30 22:02 | 38.47831 | -77.80028 | 8906 ft | 308 kts | 113° |
| 2026-04-30 22:03 | 38.47034 | -77.77496 | 8906 ft | 308 kts | 113° |
| 2026-04-30 22:03 | 38.46235 | -77.74961 | 8911 ft | 308 kts | 113° |
| 2026-04-30 22:03 | 38.45435 | -77.72430 | 8908 ft | 308 kts | 113° |
| 2026-04-30 22:03 | 38.44636 | -77.69900 | 8908 ft | 307 kts | 113° |
| 2026-04-30 22:04 | 38.43836 | -77.67370 | 8903 ft | 308 kts | 113° |
| 2026-04-30 22:04 | 38.43035 | -77.64838 | 8884 ft | 308 kts | 113° |
| 2026-04-30 22:04 | 38.41432 | -77.59782 | 8883 ft | 308 kts | 113° |
| 2026-04-30 22:05 | 38.40630 | -77.57254 | 8884 ft | 308 kts | 113° |
| 2026-04-30 22:05 | 38.39827 | -77.54727 | 8886 ft | 307 kts | 113° |
| 2026-04-30 22:05 | 38.39024 | -77.52198 | 8889 ft | 308 kts | 113° |
| 2026-04-30 22:05 | 38.38219 | -77.49669 | 8894 ft | 308 kts | 113° |
| 2026-04-30 22:06 | 38.37413 | -77.47141 | 8886 ft | 308 kts | 113° |
| 2026-04-30 22:06 | 38.36407 | -77.42819 | 8822 ft | 308 kts | 89° |
| 2026-04-30 22:06 | 38.36814 | -77.39261 | 8904 ft | 306 kts | 78° |
| 2026-04-30 22:07 | 38.37080 | -77.37462 | 8896 ft | 307 kts | 77° |
| 2026-04-30 22:07 | 38.37975 | -77.34110 | 8826 ft | 300 kts | 50° |
| 2026-04-30 22:07 | 38.39514 | -77.32402 | 8890 ft | 293 kts | 30° |
| 2026-04-30 22:07 | 38.40666 | -77.31438 | 8915 ft | 294 kts | 29° |
| 2026-04-30 22:08 | 38.42332 | -77.29899 | 8790 ft | 298 kts | 34° |
| 2026-04-30 22:08 | 38.43900 | -77.28159 | 8429 ft | 299 kts | 38° |
| 2026-04-30 22:08 | 38.45441 | -77.26408 | 8031 ft | 293 kts | 37° |
| 2026-04-30 22:08 | 38.46989 | -77.24766 | 7641 ft | 287 kts | 35° |
| 2026-04-30 22:09 | 38.48522 | -77.23166 | 7262 ft | 283 kts | 36° |
| 2026-04-30 22:09 | 38.50023 | -77.21559 | 6887 ft | 281 kts | 36° |
| 2026-04-30 22:09 | 38.51509 | -77.19957 | 6525 ft | 278 kts | 36° |
| 2026-04-30 22:09 | 38.52975 | -77.18385 | 6149 ft | 273 kts | 36° |
| 2026-04-30 22:10 | 38.54427 | -77.16832 | 5776 ft | 271 kts | 36° |
| 2026-04-30 22:10 | 38.55871 | -77.15286 | 5422 ft | 271 kts | 36° |
| 2026-04-30 22:10 | 38.57313 | -77.13739 | 5064 ft | 270 kts | 36° |
| 2026-04-30 22:10 | 38.58751 | -77.12195 | 4703 ft | 269 kts | 36° |
| 2026-04-30 22:11 | 38.61505 | -77.09231 | 4013 ft | 252 kts | 36° |
| 2026-04-30 22:11 | 38.62838 | -77.07802 | 3665 ft | 249 kts | 36° |
| 2026-04-30 22:11 | 38.64143 | -77.06371 | 3347 ft | 251 kts | 37° |
| 2026-04-30 22:12 | 38.65435 | -77.04857 | 3014 ft | 254 kts | 38° |
| 2026-04-30 22:12 | 38.66732 | -77.03319 | 2675 ft | 252 kts | 38° |
| 2026-04-30 22:12 | 38.68033 | -77.01994 | 2283 ft | 224 kts | 20° |
| 2026-04-30 22:12 | 38.69446 | -77.01914 | 2119 ft | 196 kts | 340° |
| 2026-04-30 22:13 | 38.70674 | -77.02290 | 2178 ft | 172 kts | 348° |
| 2026-04-30 22:13 | 38.71844 | -77.02425 | 2261 ft | 172 kts | 350° |
| 2026-04-30 22:13 | 38.73018 | -77.02548 | 2254 ft | 164 kts | 351° |
| 2026-04-30 22:13 | 38.74121 | -77.02655 | 2018 ft | 154 kts | 350° |
| 2026-04-30 22:14 | 38.75104 | -77.02748 | 1805 ft | 128 kts | 348° |
| 2026-04-30 22:14 | 38.75954 | -77.02841 | 1655 ft | 120 kts | 349° |
| 2026-04-30 22:14 | 38.76781 | -77.02923 | 1489 ft | 117 kts | 349° |
| 2026-04-30 22:14 | 38.77557 | -77.02998 | 1342 ft | 106 kts | 348° |
| 2026-04-30 22:15 | 38.78287 | -77.03080 | 1213 ft | 106 kts | 350° |
| 2026-04-30 22:15 | 38.79060 | -77.03161 | 1065 ft | 116 kts | 351° |
| 2026-04-30 22:15 | 38.79861 | -77.03242 | 904 ft | 114 kts | 349° |
| 2026-04-30 22:15 | 38.80651 | -77.03322 | 755 ft | 112 kts | 349° |
| 2026-04-30 22:16 | 38.81435 | -77.03401 | 603 ft | 113 kts | 350° |
| 2026-04-30 22:16 | 38.82206 | -77.03478 | 446 ft | 108 kts | 348° |
| 2026-04-30 22:17 | 38.84416 | -77.03694 | 28 ft | 99 kts | 348° |
| 2026-04-30 22:17 | 38.85011 | -77.03766 | 20 ft | 63 kts | 357° |
| 2026-04-30 22:17 | 38.85485 | -77.03851 | 22 ft | 20 kts | 320° |
| 2026-04-30 22:18 | 38.85502 | -77.03918 | 21 ft | 0 kts | 252° |
| 2026-04-30 22:18 | 38.85491 | -77.03937 | 21 ft | 0 kts | 219° |
| 2026-04-30 22:19 | 38.85491 | -77.03938 | 21 ft | 0 kts | 219° |
| 2026-04-30 22:19 | 38.85486 | -77.03941 | 21 ft | 1 kts | 209° |
| 2026-04-30 22:19 | 38.85478 | -77.03944 | 21 ft | 0 kts | 189° |
| 2026-04-30 22:20 | 38.85468 | -77.03944 | 23 ft | 6 kts | 181° |
| 2026-04-30 22:21 | 38.85420 | -77.03941 | 21 ft | 7 kts | 174° |
| 2026-04-30 22:21 | 38.85367 | -77.03936 | 22 ft | 8 kts | 191° |
| 2026-04-30 22:21 | 38.85329 | -77.03980 | 22 ft | 7 kts | 214° |